createdAt,value
2022-12-06T00:01:09.419Z,100104.38
2022-12-06T00:03:39.026Z,100113.56
2022-12-06T00:06:08.263Z,100110.69
2022-12-06T00:08:35.457Z,100096.38
2022-12-06T00:11:13.054Z,100099.94
2022-12-06T00:13:40.969Z,100104.56
2022-12-06T00:16:18.546Z,100100.91
2022-12-06T00:18:46.797Z,100106.50
2022-12-06T00:21:15.131Z,100112.97
2022-12-06T00:23:48.056Z,100094.13
2022-12-06T00:26:16.427Z,100083.50
2022-12-06T00:28:43.530Z,100084.97
2022-12-06T00:31:16.195Z,100074.50
2022-12-06T00:33:43.384Z,100089.97
2022-12-06T00:36:20.356Z,100089.16
2022-12-06T00:38:47.800Z,100087.22
2022-12-06T00:41:19.913Z,100084.00
2022-12-06T00:43:47.116Z,100086.56
2022-12-06T00:46:17.437Z,100071.13
2022-12-06T00:48:45.566Z,100069.03
2022-12-06T00:51:13.323Z,100061.28
2022-12-06T00:53:40.114Z,100070.97
2022-12-06T00:56:07.136Z,100073.03
2022-12-06T00:58:34.128Z,100072.41
2022-12-06T01:01:14.331Z,100054.56
2022-12-06T01:03:41.865Z,100042.81
2022-12-06T01:06:11.502Z,100042.81
2022-12-06T01:08:42.929Z,100019.00
2022-12-06T01:11:10.367Z,100027.19
2022-12-06T01:13:40.140Z,100039.44
2022-12-06T01:16:09.183Z,100046.47
2022-12-06T01:18:36.322Z,100023.84
2022-12-06T01:21:16.099Z,100034.47
2022-12-06T01:23:43.770Z,100028.81
2022-12-06T01:26:17.321Z,100008.38
2022-12-06T01:28:44.860Z,100020.78
2022-12-06T01:31:12.184Z,100009.19
2022-12-06T01:33:38.899Z,99995.34
2022-12-06T01:36:06.132Z,99992.31
2022-12-06T01:38:32.896Z,99987.78
2022-12-06T01:40:59.712Z,100001.63
2022-12-06T01:43:42.293Z,100003.06
2022-12-06T01:46:21.472Z,99990.53
2022-12-06T01:49:06.569Z,99992.31
2022-12-06T01:51:34.467Z,100013.69
2022-12-06T01:54:04.380Z,99998.09
2022-12-06T01:56:31.872Z,99977.16
2022-12-06T01:58:59.722Z,99998.44
2022-12-06T02:01:30.034Z,99993.44
2022-12-06T02:03:58.776Z,99991.84
2022-12-06T02:06:25.800Z,99974.78
2022-12-06T02:08:54.990Z,99977.84
2022-12-06T02:11:21.787Z,99976.88
2022-12-06T02:13:48.657Z,99978.81
2022-12-06T02:16:39.542Z,99973.63
2022-12-06T02:19:24.760Z,99974.63
2022-12-06T02:22:12.464Z,99985.56
2022-12-06T02:25:00.064Z,99989.25
2022-12-06T02:27:57.556Z,100002.72
2022-12-06T02:30:30.110Z,100009.50
2022-12-06T02:33:06.015Z,100011.75
2022-12-06T02:35:44.923Z,100000.47
2022-12-06T02:38:29.236Z,99984.22
2022-12-06T02:41:03.851Z,99974.91
2022-12-06T02:43:40.123Z,99980.69
2022-12-06T02:46:09.149Z,99976.53
2022-12-06T02:48:37.077Z,99975.56
2022-12-06T02:51:09.473Z,99970.13
2022-12-06T02:53:40.533Z,99960.31
2022-12-06T02:56:08.661Z,99961.75
2022-12-06T02:58:38.576Z,99964.50
2022-12-06T03:01:37.856Z,99967.22
2022-12-06T03:04:35.077Z,99967.34
2022-12-06T03:07:12.185Z,99969.47
2022-12-06T03:09:57.730Z,99958.38
2022-12-06T03:12:39.769Z,99964.31
2022-12-06T03:15:35.433Z,99965.78
2022-12-06T03:18:13.646Z,99972.53
2022-12-06T03:21:17.513Z,99970.41
2022-12-06T03:23:48.199Z,99974.75
2022-12-06T03:26:19.349Z,99970.41
2022-12-06T03:28:49.038Z,99975.56
2022-12-06T03:31:16.225Z,99979.09
2022-12-06T03:33:52.448Z,99977.19
2022-12-06T03:36:20.238Z,99966.41
2022-12-06T03:39:07.853Z,99963.69
2022-12-06T03:41:57.528Z,99978.13
2022-12-06T03:44:25.616Z,99952.09
2022-12-06T03:46:59.040Z,99979.44
2022-12-06T03:49:50.123Z,99970.13
2022-12-06T03:52:16.871Z,99968.81
2022-12-06T03:54:43.558Z,99982.47
2022-12-06T03:57:10.917Z,99989.69
2022-12-06T03:59:37.613Z,99985.19
2022-12-06T04:02:04.393Z,99985.03
2022-12-06T04:04:31.160Z,99982.00
2022-12-06T04:06:58.007Z,99989.06
2022-12-06T04:09:43.066Z,99993.88
2022-12-06T04:12:29.759Z,99990.34
2022-12-06T04:14:56.490Z,99992.59
2022-12-06T04:17:41.877Z,99989.53
2022-12-06T04:20:08.935Z,99979.75
2022-12-06T04:22:54.110Z,99981.81
2022-12-06T04:25:21.117Z,99983.59
2022-12-06T04:28:06.215Z,99982.94
2022-12-06T04:30:52.872Z,99982.00
2022-12-06T04:33:38.048Z,99991.94
2022-12-06T04:36:23.779Z,99984.56
2022-12-06T04:38:50.472Z,99983.75
2022-12-06T04:41:37.484Z,99985.19
2022-12-06T04:44:05.757Z,99981.38
2022-12-06T04:46:32.785Z,99980.06
2022-12-06T04:48:59.866Z,99969.13
2022-12-06T04:51:26.808Z,99960.78
2022-12-06T04:53:53.614Z,99965.13
2022-12-06T04:56:20.707Z,99963.00
2022-12-06T04:58:47.775Z,99963.00
2022-12-06T05:01:14.472Z,99962.38
2022-12-06T05:03:44.315Z,99950.16
2022-12-06T05:06:11.706Z,99942.13
2022-12-06T05:08:38.444Z,99935.38
2022-12-06T05:11:05.229Z,99935.84
2022-12-06T05:13:31.929Z,99929.75
2022-12-06T05:16:08.763Z,99922.34
2022-12-06T05:18:35.522Z,99927.94
2022-12-06T05:21:07.891Z,99929.84
2022-12-06T05:23:35.907Z,99934.50
2022-12-06T05:26:05.710Z,99950.06
2022-12-06T05:28:35.115Z,99942.84
2022-12-06T05:31:02.431Z,99945.84
2022-12-06T05:33:29.668Z,99947.44
2022-12-06T05:35:56.593Z,99947.59
2022-12-06T05:38:23.936Z,99949.97
2022-12-06T05:40:50.579Z,99959.88
2022-12-06T05:43:17.637Z,99954.91
2022-12-06T05:45:44.479Z,99953.47
2022-12-06T05:48:11.220Z,99954.59
2022-12-06T05:50:38.222Z,99959.72
2022-12-06T05:53:04.957Z,99956.19
2022-12-06T05:55:31.716Z,99965.66
2022-12-06T05:58:01.158Z,99957.31
2022-12-06T06:00:27.998Z,99955.44
2022-12-06T06:02:54.813Z,99956.13
2022-12-06T06:05:21.574Z,99954.41
2022-12-06T06:07:48.316Z,99966.16
2022-12-06T06:10:16.133Z,99963.25
2022-12-06T06:12:45.361Z,99966.16
2022-12-06T06:15:15.950Z,99975.47
2022-12-06T06:17:43.469Z,99965.69
2022-12-06T06:20:13.883Z,99970.22
2022-12-06T06:22:41.898Z,99967.78
2022-12-06T06:25:09.485Z,99968.16
2022-12-06T06:27:37.954Z,99971.22
2022-12-06T06:30:08.492Z,99968.00
2022-12-06T06:32:35.370Z,99973.31
2022-12-06T06:35:02.285Z,99972.38
2022-12-06T06:37:30.139Z,99972.38
2022-12-06T06:39:57.068Z,99957.22
2022-12-06T06:42:23.900Z,99961.41
2022-12-06T06:44:51.866Z,99959.47
2022-12-06T06:47:18.597Z,99961.72
2022-12-06T06:49:45.247Z,99974.09
2022-12-06T06:52:11.955Z,99980.38
2022-12-06T06:54:38.593Z,99976.66
2022-12-06T06:57:05.473Z,99973.78
2022-12-06T06:59:32.422Z,99968.34
2022-12-06T07:01:59.259Z,99977.34
2022-12-06T07:04:25.982Z,99985.03
2022-12-06T07:06:52.612Z,99986.19
2022-12-06T07:09:19.263Z,99976.06
2022-12-06T07:11:45.999Z,99976.53
2022-12-06T07:14:12.691Z,99984.59
2022-12-06T07:16:39.343Z,99977.50
2022-12-06T07:19:09.022Z,99994.88
2022-12-06T07:21:36.003Z,99992.78
2022-12-06T07:24:02.667Z,99993.25
2022-12-06T07:26:32.209Z,99983.59
2022-12-06T07:28:59.947Z,99985.53
2022-12-06T07:31:29.173Z,99987.28
2022-12-06T07:33:58.181Z,99979.88
2022-12-06T07:36:26.449Z,99976.81
2022-12-06T07:38:55.905Z,99981.63
2022-12-06T07:41:42.953Z,99988.41
2022-12-06T07:44:46.352Z,99983.25
2022-12-06T07:47:13.000Z,99988.38
2022-12-06T07:49:39.642Z,99981.44
2022-12-06T07:52:09.005Z,99979.63
2022-12-06T07:54:35.675Z,99981.06
2022-12-06T07:57:02.459Z,99982.47
2022-12-06T07:59:29.238Z,99986.47
2022-12-06T08:01:56.316Z,99981.78
2022-12-06T08:04:23.662Z,99978.03
2022-12-06T08:06:50.622Z,99982.28
2022-12-06T08:09:17.414Z,99978.19
2022-12-06T08:11:44.116Z,99975.16
2022-12-06T08:14:11.239Z,99980.13
2022-12-06T08:16:39.527Z,99972.19
2022-12-06T08:19:06.403Z,99984.75
2022-12-06T08:21:33.505Z,99976.47
2022-12-06T08:24:00.812Z,99974.16
2022-12-06T08:26:27.520Z,99978.31
2022-12-06T08:28:54.187Z,99971.91
2022-12-06T08:31:23.230Z,99976.91
2022-12-06T08:33:50.628Z,99982.88
2022-12-06T08:36:20.756Z,99982.97
2022-12-06T08:38:48.235Z,99986.47
2022-12-06T08:41:33.682Z,99988.13
2022-12-06T08:44:02.324Z,99995.41
2022-12-06T08:46:30.568Z,99987.94
2022-12-06T08:48:57.649Z,99978.81
2022-12-06T08:51:24.608Z,99981.22
2022-12-06T08:53:53.969Z,99984.63
2022-12-06T08:56:21.245Z,99986.75
2022-12-06T08:58:48.683Z,99984.25
2022-12-06T09:01:25.813Z,99981.50
2022-12-06T09:03:52.993Z,99978.38
2022-12-06T09:06:21.093Z,99981.47
2022-12-06T09:08:49.877Z,99974.41
2022-12-06T09:11:16.928Z,99983.97
2022-12-06T09:13:44.103Z,99980.59
2022-12-06T09:16:16.244Z,99982.56
2022-12-06T09:18:44.372Z,99977.47
2022-12-06T09:21:16.953Z,99985.38
2022-12-06T09:23:44.327Z,99974.72
2022-12-06T09:26:11.220Z,99980.44
2022-12-06T09:28:40.500Z,99979.88
2022-12-06T09:31:11.140Z,99990.19
2022-12-06T09:33:38.538Z,99979.06
2022-12-06T09:36:17.908Z,99983.09
2022-12-06T09:38:48.189Z,99981.53
2022-12-06T09:41:29.747Z,99976.66
2022-12-06T09:44:22.909Z,99975.75
2022-12-06T09:47:29.568Z,99975.84
2022-12-06T09:50:36.341Z,99968.41
2022-12-06T09:53:39.907Z,99962.75
2022-12-06T09:56:36.263Z,99961.59
2022-12-06T09:59:44.436Z,99958.31
2022-12-06T10:02:25.503Z,99954.91
2022-12-06T10:05:14.327Z,99952.97
2022-12-06T10:07:58.173Z,99944.16
2022-12-06T10:11:08.729Z,99946.22
2022-12-06T10:14:33.896Z,99947.06
2022-12-06T10:17:14.852Z,99936.94
2022-12-06T10:20:19.448Z,99940.13
2022-12-06T10:22:57.812Z,99933.28
2022-12-06T10:25:41.239Z,99929.34
2022-12-06T10:28:15.179Z,99931.84
2022-12-06T10:31:26.299Z,99920.88
2022-12-06T10:34:06.062Z,99925.78
2022-12-06T10:36:47.627Z,99931.31
2022-12-06T10:39:48.766Z,99925.47
2022-12-06T10:42:29.755Z,99925.59
2022-12-06T10:45:37.662Z,99920.19
2022-12-06T10:48:15.573Z,99921.78
2022-12-06T10:50:43.450Z,99926.06
2022-12-06T10:53:16.197Z,99923.50
2022-12-06T10:55:52.014Z,99924.94
2022-12-06T10:58:51.247Z,99927.50
2022-12-06T11:01:28.271Z,99926.06
2022-12-06T11:04:04.503Z,99932.31
2022-12-06T11:07:04.448Z,99914.91
2022-12-06T11:09:44.147Z,99917.25
2022-12-06T11:12:20.564Z,99905.50
2022-12-06T11:14:52.726Z,99907.53
2022-12-06T11:17:23.501Z,99915.66
2022-12-06T11:19:51.343Z,99908.53
2022-12-06T11:22:51.739Z,99914.47
2022-12-06T11:25:25.721Z,99896.41
2022-12-06T11:28:11.452Z,99903.34
2022-12-06T11:30:38.486Z,99901.19
2022-12-06T11:33:05.836Z,99898.38
2022-12-06T11:35:32.795Z,99888.50
2022-12-06T11:38:03.420Z,99899.03
2022-12-06T11:40:42.186Z,99899.41
2022-12-06T11:43:12.789Z,99891.28
2022-12-06T11:45:43.422Z,99895.91
2022-12-06T11:48:32.084Z,99894.13
2022-12-06T11:50:58.928Z,99898.00
2022-12-06T11:53:48.997Z,99891.00
2022-12-06T11:56:37.902Z,99890.09
2022-12-06T11:59:26.299Z,99893.19
2022-12-06T12:01:56.245Z,99900.94
2022-12-06T12:04:44.121Z,99894.56
2022-12-06T12:07:18.125Z,99897.28
2022-12-06T12:09:52.891Z,99900.81
2022-12-06T12:12:50.191Z,99888.22
2022-12-06T12:15:18.822Z,99889.03
2022-12-06T12:17:53.147Z,99885.34
2022-12-06T12:20:27.314Z,99893.38
2022-12-06T12:22:58.638Z,99898.47
2022-12-06T12:25:31.287Z,99895.09
2022-12-06T12:27:59.926Z,99891.72
2022-12-06T12:30:38.577Z,99895.16
2022-12-06T12:33:10.013Z,99893.03
2022-12-06T12:35:47.490Z,99902.69
2022-12-06T12:38:24.720Z,99896.81
2022-12-06T12:41:01.472Z,99889.81
2022-12-06T12:43:32.486Z,99893.03
2022-12-06T12:46:17.978Z,99895.03
2022-12-06T12:48:47.396Z,99893.19
2022-12-06T12:51:23.808Z,99884.88
2022-12-06T12:53:57.605Z,99896.34
2022-12-06T12:56:24.514Z,99892.44
2022-12-06T12:58:54.851Z,99888.66
2022-12-06T13:01:24.652Z,99892.22
2022-12-06T13:04:03.302Z,99880.31
2022-12-06T13:06:38.633Z,99880.03
2022-12-06T13:09:07.647Z,99879.09
2022-12-06T13:11:43.232Z,99880.41
2022-12-06T13:14:19.106Z,99884.88
2022-12-06T13:16:48.984Z,99878.81
2022-12-06T13:19:18.811Z,99888.75
2022-12-06T13:21:47.231Z,99886.94
2022-12-06T13:24:23.922Z,99881.28
2022-12-06T13:27:19.535Z,99881.09
2022-12-06T13:30:06.424Z,99881.91
2022-12-06T13:32:57.785Z,99889.47
2022-12-06T13:35:32.560Z,99893.03
2022-12-06T13:38:01.873Z,99881.00
2022-12-06T13:40:38.841Z,99879.09
2022-12-06T13:43:26.888Z,99874.28
2022-12-06T13:46:07.328Z,99875.00
2022-12-06T13:48:35.527Z,99888.38
2022-12-06T13:51:32.671Z,99903.69
2022-12-06T13:54:05.441Z,99889.41
2022-12-06T13:56:35.181Z,99888.22
2022-12-06T13:59:05.702Z,99899.22
2022-12-06T14:01:40.675Z,99898.53
2022-12-06T14:04:38.004Z,99884.06
2022-12-06T14:09:49.362Z,99891.84
2022-12-06T14:12:21.819Z,99897.00
2022-12-06T14:14:59.751Z,99901.00
2022-12-06T14:20:31.166Z,99899.41
2022-12-06T14:22:57.993Z,99910.81
2022-12-06T14:25:29.730Z,99906.28
2022-12-06T14:28:11.671Z,99907.09
2022-12-06T14:30:39.323Z,99897.72
2022-12-06T14:33:26.609Z,99907.56
2022-12-06T14:35:54.581Z,99906.56
2022-12-06T14:38:24.922Z,99899.16
2022-12-06T14:41:10.877Z,99901.38
2022-12-06T14:43:39.313Z,99901.38
2022-12-06T14:46:10.872Z,99909.13
2022-12-06T14:48:56.816Z,99910.28
2022-12-06T14:51:36.345Z,99905.31
2022-12-06T14:54:31.351Z,99895.72
2022-12-06T14:56:58.125Z,99903.44
2022-12-06T15:00:11.018Z,99903.81
2022-12-06T15:02:24.910Z,99900.28
2022-12-06T15:04:51.899Z,99901.88
2022-12-06T15:07:32.910Z,99905.44
2022-12-06T15:10:33.407Z,99902.38
2022-12-06T15:13:16.466Z,99902.22
2022-12-06T15:15:46.141Z,99895.00
2022-12-06T15:18:24.278Z,99894.84
2022-12-06T15:20:51.763Z,99890.78
2022-12-06T15:23:40.877Z,99894.53
2022-12-06T15:26:11.422Z,99890.31
2022-12-06T15:28:38.330Z,99891.59
2022-12-06T15:31:07.650Z,99900.16
2022-12-06T15:33:34.351Z,99902.38
2022-12-06T15:36:01.828Z,99900.44
2022-12-06T15:38:28.730Z,99898.31
2022-12-06T15:40:57.206Z,99904.13
2022-12-06T15:43:24.079Z,99897.34
2022-12-06T15:45:55.028Z,99901.22
2022-12-06T15:48:22.366Z,99907.66
2022-12-06T15:50:49.436Z,99912.31
2022-12-06T15:53:18.975Z,99915.25
2022-12-06T15:55:46.063Z,99913.66
2022-12-06T15:58:12.734Z,99919.91
2022-12-06T16:00:39.521Z,99916.38
2022-12-06T16:03:06.381Z,99918.63
2022-12-06T16:05:33.145Z,99915.25
2022-12-06T16:08:00.104Z,99907.88
2022-12-06T16:10:48.824Z,99919.25
2022-12-06T16:13:24.607Z,99915.38
2022-12-06T16:15:52.484Z,99910.56
2022-12-06T16:18:19.579Z,99910.53
2022-12-06T16:20:46.683Z,99910.69
2022-12-06T16:24:10.899Z,99906.97
2022-12-06T16:26:22.064Z,99906.28
2022-12-06T16:28:48.911Z,99899.69
2022-12-06T16:31:15.763Z,99908.50
2022-12-06T16:33:42.567Z,99902.06
2022-12-06T16:36:17.101Z,99905.44
2022-12-06T16:38:43.863Z,99885.91
2022-12-06T16:41:19.658Z,99891.69
2022-12-06T16:43:46.492Z,99884.94
2022-12-06T16:46:23.215Z,99889.47
2022-12-06T16:49:02.581Z,99891.53
2022-12-06T16:51:37.410Z,99887.84
2022-12-06T16:54:05.356Z,99888.16
2022-12-06T16:56:33.732Z,99881.41
2022-12-06T16:59:02.069Z,99885.31
2022-12-06T17:01:38.120Z,99892.06
2022-12-06T17:04:08.839Z,99896.94
2022-12-06T17:06:35.814Z,99896.63
2022-12-06T17:09:02.483Z,99891.50
2022-12-06T17:11:53.725Z,99894.13
2022-12-06T17:14:28.226Z,99898.63
2022-12-06T17:16:55.680Z,99891.25
2022-12-06T17:19:28.467Z,99884.50
2022-12-06T17:21:56.359Z,99900.41
2022-12-06T17:24:26.946Z,99894.13
2022-12-06T17:26:55.216Z,99893.78
2022-12-06T17:29:23.615Z,99901.19
2022-12-06T17:31:51.197Z,99896.66
2022-12-06T17:34:19.448Z,99900.84
2022-12-06T17:36:47.437Z,99890.06
2022-12-06T17:39:18.201Z,99898.13
2022-12-06T17:42:03.648Z,99891.22
2022-12-06T17:44:31.904Z,99888.16
2022-12-06T17:46:58.728Z,99888.47
2022-12-06T17:49:26.840Z,99895.13
2022-12-06T17:51:54.310Z,99880.97
2022-12-06T17:54:21.589Z,99881.44
2022-12-06T17:56:53.676Z,99881.31
2022-12-06T17:59:23.253Z,99876.31
2022-12-06T18:02:14.253Z,99870.25
2022-12-06T18:04:38.828Z,99875.06
2022-12-06T18:07:06.114Z,99877.47
2022-12-06T18:09:32.826Z,99877.47
2022-12-06T18:12:01.181Z,99879.25
2022-12-06T18:14:28.320Z,99877.81
2022-12-06T18:16:55.814Z,99870.56
2022-12-06T18:19:23.270Z,99875.25
2022-12-06T18:21:52.202Z,99885.06
2022-12-06T18:24:22.453Z,99884.25
2022-12-06T18:26:50.155Z,99883.28
2022-12-06T18:29:20.133Z,99879.09
2022-12-06T18:31:46.995Z,99880.06
2022-12-06T18:34:13.794Z,99877.84
2022-12-06T18:36:41.352Z,99884.94
2022-12-06T18:39:14.398Z,99885.06
2022-12-06T18:41:46.251Z,99876.69
2022-12-06T18:44:13.745Z,99876.53
2022-12-06T18:46:42.689Z,99880.41
2022-12-06T18:49:10.899Z,99887.47
2022-12-06T18:51:38.875Z,99893.75
2022-12-06T18:54:06.658Z,99891.00
2022-12-06T18:56:34.400Z,99892.28
2022-12-06T18:59:02.938Z,99885.06
2022-12-06T19:01:32.770Z,99880.88
2022-12-06T19:04:02.411Z,99882.94
2022-12-06T19:06:32.425Z,99872.31
2022-12-06T19:09:03.353Z,99883.56
2022-12-06T19:11:30.190Z,99880.38
2022-12-06T19:13:58.853Z,99879.50
2022-12-06T19:16:29.169Z,99872.28
2022-12-06T19:18:59.839Z,99883.31
2022-12-06T19:21:27.171Z,99885.44
2022-12-06T19:23:55.787Z,99883.16
2022-12-06T19:26:23.670Z,99879.28
2022-12-06T19:28:50.776Z,99877.34
2022-12-06T19:31:18.506Z,99877.97
2022-12-06T19:33:49.455Z,99881.19
2022-12-06T19:36:22.730Z,99872.66
2022-12-06T19:38:55.164Z,99881.69
2022-12-06T19:41:21.944Z,99880.50
2022-12-06T19:44:07.032Z,99865.69
2022-12-06T19:46:34.051Z,99868.25
2022-12-06T19:49:05.436Z,99874.38
2022-12-06T19:51:36.870Z,99862.47
2022-12-06T19:54:04.238Z,99862.31
2022-12-06T19:56:31.723Z,99874.38
2022-12-06T19:59:01.634Z,99864.88
2022-12-06T20:01:32.223Z,99877.25
2022-12-06T20:04:00.895Z,99869.53
2022-12-06T20:06:28.022Z,99870.50
2022-12-06T20:08:58.955Z,99867.81
2022-12-06T20:11:47.289Z,99867.34
2022-12-06T20:14:16.558Z,99869.28
2022-12-06T20:16:44.352Z,99869.28
2022-12-06T20:19:12.777Z,99867.66
2022-12-06T20:21:39.468Z,99868.97
2022-12-06T20:24:06.393Z,99863.19
2022-12-06T20:26:33.450Z,99870.91
2022-12-06T20:29:00.867Z,99868.00
2022-12-06T20:31:31.070Z,99856.41
2022-12-06T20:34:00.481Z,99860.41
2022-12-06T20:36:28.188Z,99870.03
2022-12-06T20:38:56.010Z,99864.88
2022-12-06T20:41:24.860Z,99868.91
2022-12-06T20:43:52.637Z,99857.44
2022-12-06T20:46:23.135Z,99847.50
2022-12-06T20:48:49.994Z,99866.66
2022-12-06T20:51:19.682Z,99861.50
2022-12-06T20:53:47.554Z,99863.69
2022-12-06T20:56:19.431Z,99858.28
2022-12-06T20:58:48.416Z,99847.03
2022-12-06T21:01:19.587Z,99857.31
2022-12-06T21:03:47.619Z,99862.13
2022-12-06T21:06:15.182Z,99852.28
2022-12-06T21:08:42.743Z,99848.63
2022-12-06T21:11:25.486Z,99843.28
2022-12-06T21:13:53.912Z,99841.19
2022-12-06T21:16:23.740Z,99847.97
2022-12-06T21:18:59.574Z,99852.00
2022-12-06T21:21:32.541Z,99859.19
2022-12-06T21:24:01.089Z,99862.38
2022-12-06T21:26:29.061Z,99855.63
2022-12-06T21:28:56.019Z,99860.47
2022-12-06T21:31:31.320Z,99865.13
2022-12-06T21:33:58.237Z,99868.50
2022-12-06T21:36:25.633Z,99876.78
2022-12-06T21:38:52.917Z,99868.91
2022-12-06T21:41:20.489Z,99862.19
2022-12-06T21:43:47.389Z,99866.06
2022-12-06T21:46:20.012Z,99869.19
2022-12-06T21:48:55.447Z,99878.41
2022-12-06T21:51:23.308Z,99873.72
2022-12-06T21:53:50.369Z,99877.72
2022-12-06T21:56:22.913Z,99873.81
2022-12-06T21:58:50.029Z,99878.34
2022-12-06T22:01:22.618Z,99880.88
2022-12-06T22:03:50.672Z,99878.28
2022-12-06T22:06:17.775Z,99880.81
2022-12-06T22:08:45.570Z,99883.34
2022-12-06T22:11:15.435Z,99867.41
2022-12-06T22:13:42.818Z,99866.72
2022-12-06T22:16:11.217Z,99855.94
2022-12-06T22:18:44.978Z,99857.09
2022-12-06T22:21:16.148Z,99857.25
2022-12-06T22:23:43.502Z,99853.38
2022-12-06T22:26:13.544Z,99849.03
2022-12-06T22:28:40.215Z,99854.00
2022-12-06T22:31:21.609Z,99852.41
2022-12-06T22:33:49.821Z,99855.41
2022-12-06T22:36:17.497Z,99855.41
2022-12-06T22:38:44.537Z,99850.25
2022-12-06T22:41:11.679Z,99848.47
2022-12-06T22:43:38.371Z,99849.28
2022-12-06T22:46:10.707Z,99857.19
2022-12-06T22:48:39.303Z,99861.06
2022-12-06T22:51:11.883Z,99854.28
2022-12-06T22:53:39.884Z,99846.22
2022-12-06T22:56:06.917Z,99851.38
2022-12-06T22:58:33.987Z,99856.53
2022-12-06T23:01:07.740Z,99850.75
2022-12-06T23:03:34.692Z,99850.25
2022-12-06T23:06:01.886Z,99847.88
2022-12-06T23:08:28.780Z,99838.56
2022-12-06T23:11:11.013Z,99839.91
2022-12-06T23:13:38.102Z,99840.97
2022-12-06T23:16:10.795Z,99834.84
2022-12-06T23:18:37.509Z,99831.81
2022-12-06T23:21:08.131Z,99837.34
2022-12-06T23:23:35.694Z,99829.78
2022-12-06T23:26:05.427Z,99830.44
2022-12-06T23:28:33.100Z,99824.00
2022-12-06T23:31:04.722Z,99822.75
2022-12-06T23:33:31.989Z,99822.44
2022-12-06T23:36:03.851Z,99821.94
2022-12-06T23:38:30.678Z,99822.91
2022-12-06T23:41:02.839Z,99825.50
2022-12-06T23:43:29.560Z,99821.63
2022-12-06T23:45:59.989Z,99821.28
2022-12-06T23:48:30.138Z,99822.25
2022-12-06T23:51:04.591Z,99815.31
2022-12-06T23:53:32.103Z,99813.53
2022-12-06T23:56:05.132Z,99811.56
2022-12-06T23:58:31.847Z,99808.03
